Ortonville, MN

3:59 AM CDT on July 23, 2017 (GMT -0500)
Ortonville Municipal-Martinson

Weather History for KVVV - November, 2013

Change the Weather History Date:

Wednesday, November 6, 2013

  Actual Average (KAQP) Record (KAQP)
Temperature  
Mean Temperature 34 °F -  
Max Temperature 44 °F 42 °F 71 °F (2016)
Min Temperature 24 °F 25 °F 3 °F (2003)
Degree Days  
Heating Degree Days 31    
Moisture  
Dew Point 23 °F    
Average Humidity 67    
Maximum Humidity 93    
Minimum Humidity 39    
Precipitation  
Precipitation 0.00 in - - ()
Sea Level Pressure  
Sea Level Pressure 30.11 in    
Wind  
Wind Speed 7 mph (West)    
Max Wind Speed 13 mph    
Max Gust Speed 17 mph    
Visibility 10 miles    
Events      
Averages and records for this station are not official NWS values.
T = Trace of Precipitation, MM = Missing Value Source: NWS Daily Summary

Daily Weather History Graph

Daily Weather History Graph

Search for Another Location

Airport or City:

Trip Planner

Search our weather history database for the weather conditions in past years. The results will help you decide how hot, cold, wet, or windy it might be!

Date:

Astronomy

Nov. 06, 2013 Rise Set
Actual Time 7:12 AM CST 5:05 PM CST
Civil Twilight 6:40 AM CST 5:37 PM CST
Nautical Twilight 6:05 AM CST 6:12 PM CST
Astronomical Twilight 5:31 AM CST 6:46 PM CST
Moon 10:32 AM CST (11/6) 8:07 PM CST (11/6)
Length of Visible Light 10h 56m
Length of Day
9h 53m
Waxing Crescent, 14% of the Moon is Illuminated
Nov 6
Waxing Crescent
Nov 9
First Quarter
Nov 17
Full
Nov 25
Last Quarter
Dec 2
New

Hourly Weather History & Observations

Time (CST) Temp. Windchill Dew Point Humidity Pressure Visibility Wind Dir Wind Speed Gust Speed Precip Events Conditions
12:14 AM 33.8 °F 27.0 °F 23.0 °F 65% 30.09 in 10.0 mi NW 8.1 mph - N/A   Scattered Clouds
12:33 AM 33.8 °F 27.0 °F 21.2 °F 60% 30.10 in 10.0 mi NNW 8.1 mph - N/A   Scattered Clouds
12:54 AM 33.8 °F 27.7 °F 21.2 °F 60% 30.09 in 10.0 mi NNW 6.9 mph - N/A   Scattered Clouds
1:14 AM 32.0 °F 25.6 °F 21.2 °F 64% 30.09 in 10.0 mi NNW 6.9 mph - N/A   Scattered Clouds
1:33 AM 32.0 °F 26.4 °F 23.0 °F 69% 30.10 in 10.0 mi NNW 5.8 mph - N/A   Clear
1:54 AM 32.0 °F 25.6 °F 21.2 °F 64% 30.10 in 10.0 mi NNW 6.9 mph - N/A   Clear
2:13 AM 30.2 °F 24.3 °F 21.2 °F 69% 30.10 in 10.0 mi NNW 5.8 mph - N/A   Clear
2:34 AM 30.2 °F 23.4 °F 21.2 °F 69% 30.10 in 10.0 mi NNW 6.9 mph - N/A   Clear
2:53 AM 30.2 °F 22.6 °F 21.2 °F 69% 30.10 in 10.0 mi NNW 8.1 mph - N/A   Clear
3:14 AM 30.2 °F 22.6 °F 19.4 °F 64% 30.10 in 10.0 mi NW 8.1 mph - N/A   Clear
3:34 AM 28.4 °F 21.2 °F 19.4 °F 69% 30.10 in 10.0 mi NW 6.9 mph - N/A   Clear
3:53 AM 28.4 °F 22.2 °F 19.4 °F 69% 30.10 in 10.0 mi NW 5.8 mph - N/A   Clear
4:14 AM 28.4 °F 22.2 °F 19.4 °F 69% 30.11 in 10.0 mi NW 5.8 mph - N/A   Clear
4:34 AM 28.4 °F 23.3 °F 21.2 °F 74% 30.11 in 10.0 mi NW 4.6 mph - N/A   Clear
4:53 AM 26.6 °F 21.2 °F 21.2 °F 80% 30.11 in 10.0 mi WNW 4.6 mph - N/A   Clear
5:14 AM 26.6 °F 20.0 °F 21.2 °F 80% 30.11 in 10.0 mi WNW 5.8 mph - N/A   Clear
5:34 AM 26.6 °F 21.2 °F 21.2 °F 80% 30.11 in 10.0 mi NW 4.6 mph - N/A   Clear
5:53 AM 26.6 °F 21.2 °F 21.2 °F 80% 30.11 in 10.0 mi WNW 4.6 mph - N/A   Clear
6:14 AM 26.6 °F 21.2 °F 21.2 °F 80% 30.11 in 10.0 mi WNW 4.6 mph - N/A   Clear
6:34 AM 26.6 °F 22.6 °F 21.2 °F 80% 30.11 in 10.0 mi WNW 3.5 mph - N/A   Clear
6:53 AM 26.6 °F 22.6 °F 21.2 °F 80% 30.11 in 10.0 mi NW 3.5 mph - N/A   Clear
7:14 AM 24.8 °F 20.5 °F 19.4 °F 80% 30.11 in 10.0 mi WNW 3.5 mph - N/A   Clear
7:34 AM 24.8 °F 20.5 °F 21.2 °F 86% 30.11 in 10.0 mi West 3.5 mph - N/A   Clear
7:53 AM 24.8 °F 20.5 °F 19.4 °F 80% 30.12 in 10.0 mi West 3.5 mph - N/A   Clear
8:14 AM 26.6 °F - 19.4 °F 74% 30.13 in 10.0 mi Calm Calm - N/A   Clear
8:33 AM 26.6 °F - 21.2 °F 80% 30.13 in 10.0 mi Calm Calm - N/A   Clear
8:54 AM 28.4 °F 24.6 °F 21.2 °F 74% 30.13 in 10.0 mi WSW 3.5 mph - N/A   Clear
9:14 AM 30.2 °F 26.7 °F 21.2 °F 69% 30.12 in 10.0 mi WSW 3.5 mph - N/A   Clear
9:33 AM 32.0 °F - 23.0 °F 69% 30.12 in 10.0 mi Calm Calm - N/A   Clear
9:54 AM 33.8 °F - 23.0 °F 65% 30.12 in 10.0 mi Calm Calm - N/A   Clear
10:13 AM 35.6 °F 31.7 °F 24.8 °F 65% 30.12 in 10.0 mi SW 4.6 mph - N/A   Clear
10:34 AM 37.4 °F 31.4 °F 24.8 °F 60% 30.11 in 10.0 mi West 8.1 mph - N/A   Clear
10:54 AM 39.2 °F 33.6 °F 24.8 °F 56% 30.12 in 10.0 mi West 8.1 mph - N/A   Clear
11:13 AM 41.0 °F 36.4 °F 24.8 °F 53% 30.11 in 10.0 mi WSW 6.9 mph - N/A   Clear
11:34 AM 42.8 °F 38.0 °F 24.8 °F 49% 30.10 in 10.0 mi SW 8.1 mph - N/A   Clear
11:54 AM 42.8 °F 38.0 °F 23.0 °F 46% 30.09 in 10.0 mi WSW 8.1 mph - N/A   Clear
12:13 PM 42.8 °F 37.5 °F 23.0 °F 46% 30.09 in 10.0 mi West 9.2 mph - N/A   Scattered Clouds
12:34 PM 44.6 °F 40.7 °F 21.2 °F 39% 30.08 in 10.0 mi West 6.9 mph - N/A   Scattered Clouds
12:54 PM 44.6 °F 40.2 °F 21.2 °F 39% 30.08 in 10.0 mi WNW 8.1 mph - N/A   Scattered Clouds
1:13 PM 44.6 °F 38.4 °F 21.2 °F 39% 30.08 in 10.0 mi West 12.7 mph - N/A   Mostly Cloudy
1:34 PM 44.6 °F 38.4 °F 21.2 °F 39% 30.09 in 10.0 mi West 12.7 mph 17.3 mph N/A   Overcast
1:53 PM 44.6 °F 38.4 °F 21.2 °F 39% 30.09 in 10.0 mi West 12.7 mph - N/A   Overcast
2:14 PM 44.6 °F 39.2 °F 21.2 °F 39% 30.09 in 10.0 mi WSW 10.4 mph - N/A   Overcast
2:34 PM 44.6 °F 40.2 °F 23.0 °F 43% 30.09 in 10.0 mi West 8.1 mph - N/A   Overcast
2:54 PM 42.8 °F 37.0 °F 21.2 °F 42% 30.09 in 10.0 mi WSW 10.4 mph - N/A   Overcast
3:13 PM 42.8 °F 37.5 °F 23.0 °F 46% 30.09 in 10.0 mi SW 9.2 mph 16.1 mph N/A   Overcast
3:34 PM 42.8 °F 37.5 °F 24.8 °F 49% 30.09 in 10.0 mi West 9.2 mph - N/A   Overcast
3:54 PM 42.8 °F 38.6 °F 24.8 °F 49% 30.09 in 10.0 mi WSW 6.9 mph - N/A   Overcast
4:13 PM 42.8 °F 37.5 °F 24.8 °F 49% 30.09 in 10.0 mi West 9.2 mph - N/A   Overcast
4:34 PM 42.8 °F 40.1 °F 24.8 °F 49% 30.09 in 10.0 mi WSW 4.6 mph - N/A   Overcast
4:54 PM 42.8 °F 39.3 °F 24.8 °F 49% 30.08 in 10.0 mi SW 5.8 mph - N/A   Overcast
5:13 PM 41.0 °F 38.0 °F 26.6 °F 57% 30.08 in 10.0 mi SSW 4.6 mph - N/A   Overcast
5:34 PM 39.2 °F 33.6 °F 26.6 °F 61% 30.08 in 10.0 mi WSW 8.1 mph - N/A   Overcast
5:54 PM 39.2 °F 34.2 °F 26.6 °F 61% 30.10 in 10.0 mi West 6.9 mph - N/A   Mostly Cloudy
6:13 PM 37.4 °F 31.4 °F 24.8 °F 60% 30.11 in 10.0 mi West 8.1 mph - N/A   Scattered Clouds
6:34 PM 35.6 °F 28.6 °F 26.6 °F 70% 30.12 in 10.0 mi West 9.2 mph - N/A   Clear
6:54 PM 35.6 °F 28.6 °F 26.6 °F 70% 30.13 in 10.0 mi WSW 9.2 mph - N/A   Scattered Clouds
7:13 PM 33.8 °F 27.0 °F 26.6 °F 75% 30.13 in 10.0 mi WSW 8.1 mph - N/A   Scattered Clouds
7:34 PM 32.0 °F 24.2 °F 26.6 °F 80% 30.13 in 10.0 mi West 9.2 mph - N/A   Scattered Clouds
7:54 PM 32.0 °F 27.5 °F 26.6 °F 80% 30.14 in 10.0 mi West 4.6 mph - N/A   Clear
8:13 PM 30.2 °F 25.4 °F 26.6 °F 86% 30.13 in 10.0 mi WSW 4.6 mph - N/A   Clear
8:34 PM 30.2 °F 25.4 °F 26.6 °F 86% 30.13 in 10.0 mi WSW 4.6 mph - N/A   Clear
8:53 PM 30.2 °F 26.7 °F 26.6 °F 86% 30.14 in 10.0 mi SW 3.5 mph - N/A   Clear
9:14 PM 30.2 °F 24.3 °F 26.6 °F 86% 30.14 in 10.0 mi WSW 5.8 mph - N/A   Clear
9:33 PM 28.4 °F 22.2 °F 24.8 °F 86% 30.15 in 10.0 mi WSW 5.8 mph - N/A   Clear
9:53 PM 30.2 °F 24.3 °F 26.6 °F 86% 30.15 in 10.0 mi WSW 5.8 mph - N/A   Clear
10:14 PM 28.4 °F 22.2 °F 26.6 °F 93% 30.15 in 10.0 mi WSW 5.8 mph - N/A   Clear
10:34 PM 28.4 °F 21.2 °F 26.6 °F 93% 30.15 in 10.0 mi West 6.9 mph - N/A   Clear
10:53 PM 30.2 °F 21.9 °F 26.6 °F 86% 30.15 in 10.0 mi West 9.2 mph - N/A   Clear
11:14 PM 30.2 °F 22.6 °F 26.6 °F 86% 30.15 in 10.0 mi West 8.1 mph - N/A   Clear
11:34 PM 28.4 °F 21.2 °F 26.6 °F 93% 30.15 in 10.0 mi West 6.9 mph - N/A   Clear
11:53 PM 28.4 °F 23.3 °F 24.8 °F 86% 30.15 in 10.0 mi West 4.6 mph - N/A   Clear